createdAt,value
2023-01-19T00:00:51.926Z,95888.63
2023-01-19T00:03:18.730Z,95901.56
2023-01-19T00:05:45.673Z,95904.16
2023-01-19T00:08:15.949Z,95911.56
2023-01-19T00:10:47.778Z,95914.88
2023-01-19T00:13:15.460Z,95913.84
2023-01-19T00:15:43.083Z,95921.50
2023-01-19T00:18:10.895Z,95909.50
2023-01-19T00:20:38.968Z,95908.53
2023-01-19T00:23:07.659Z,95906.78
2023-01-19T00:25:34.683Z,95915.94
2023-01-19T00:28:01.887Z,95913.34
2023-01-19T00:30:29.045Z,95917.75
2023-01-19T00:32:55.895Z,95907.25
2023-01-19T00:35:22.538Z,95908.53
2023-01-19T00:37:49.169Z,95920.53
2023-01-19T00:40:16.112Z,95902.84
2023-01-19T00:42:48.406Z,95907.91
2023-01-19T00:45:20.971Z,95914.59
2023-01-19T00:47:50.236Z,95914.09
2023-01-19T00:50:16.988Z,95908.47
2023-01-19T00:52:44.744Z,95903.88
2023-01-19T00:55:13.375Z,95901.31
2023-01-19T00:57:40.855Z,95902.31
2023-01-19T01:00:11.776Z,95903.00
2023-01-19T01:02:40.072Z,95905.25
2023-01-19T01:05:07.985Z,95909.25
2023-01-19T01:07:40.658Z,95920.75
2023-01-19T01:10:28.588Z,95919.47
2023-01-19T01:13:20.383Z,95918.91
2023-01-19T01:15:43.234Z,95917.22
2023-01-19T01:18:09.873Z,95929.81
2023-01-19T01:20:37.540Z,95911.41
2023-01-19T01:23:04.631Z,95922.63
2023-01-19T01:25:34.161Z,95917.03
2023-01-19T01:28:00.902Z,95918.00
2023-01-19T01:30:27.634Z,95914.16
2023-01-19T01:32:54.772Z,95922.09
2023-01-19T01:35:21.465Z,95922.34
2023-01-19T01:37:48.111Z,95915.16
2023-01-19T01:40:18.546Z,95920.53
2023-01-19T01:42:45.559Z,95915.69
2023-01-19T01:45:29.514Z,95920.97
2023-01-19T01:48:02.290Z,95919.72
2023-01-19T01:50:32.829Z,95917.31
2023-01-19T01:53:07.976Z,95919.84
2023-01-19T01:55:49.116Z,95910.13
2023-01-19T01:58:16.890Z,95917.47
2023-01-19T02:01:02.229Z,95910.59
2023-01-19T02:03:29.434Z,95915.78
2023-01-19T02:05:59.917Z,95914.75
2023-01-19T02:08:58.190Z,95912.22
2023-01-19T02:11:44.060Z,95905.91
2023-01-19T02:14:10.743Z,95892.88
2023-01-19T02:16:37.893Z,95893.59
2023-01-19T02:19:08.852Z,95895.91
2023-01-19T02:21:43.112Z,95897.94
2023-01-19T02:24:11.026Z,95898.16
2023-01-19T02:26:44.493Z,95894.34
2023-01-19T02:29:14.376Z,95887.69
2023-01-19T02:31:41.653Z,95888.78
2023-01-19T02:34:11.175Z,95893.63
2023-01-19T02:36:59.112Z,95896.47
2023-01-19T02:39:36.798Z,95883.88
2023-01-19T02:42:10.741Z,95877.31
2023-01-19T02:44:39.392Z,95877.78
2023-01-19T02:47:06.199Z,95871.75
2023-01-19T02:49:32.917Z,95868.66
2023-01-19T02:52:01.232Z,95875.09
2023-01-19T02:54:57.289Z,95860.78
2023-01-19T02:57:50.309Z,95861.22
2023-01-19T03:00:56.898Z,95862.53
2023-01-19T03:03:35.835Z,95863.50
2023-01-19T03:06:14.618Z,95867.34
2023-01-19T03:08:47.740Z,95871.72
2023-01-19T03:11:15.233Z,95870.72
2023-01-19T03:13:55.660Z,95866.03
2023-01-19T03:16:48.647Z,95876.81
2023-01-19T03:19:21.738Z,95872.31
2023-01-19T03:21:54.696Z,95886.63
2023-01-19T03:24:24.356Z,95889.66
2023-01-19T03:26:58.868Z,95900.69
2023-01-19T03:29:30.232Z,95902.19
2023-01-19T03:32:01.236Z,95906.81
2023-01-19T03:34:29.051Z,95912.44
2023-01-19T03:37:00.530Z,95911.75
2023-01-19T03:39:28.259Z,95909.75
2023-01-19T03:42:03.123Z,95914.09
2023-01-19T03:44:32.398Z,95898.97
2023-01-19T03:46:59.823Z,95899.41
2023-01-19T03:49:27.208Z,95910.59
2023-01-19T03:51:58.938Z,95918.53
2023-01-19T03:54:26.634Z,95918.16
2023-01-19T03:56:53.333Z,95922.53
2023-01-19T03:59:21.829Z,95932.91
2023-01-19T04:01:49.112Z,95932.38
2023-01-19T04:04:16.341Z,95942.03
2023-01-19T04:06:43.751Z,95944.56
2023-01-19T04:09:10.465Z,95943.34
2023-01-19T04:11:37.251Z,95944.59
2023-01-19T04:14:04.541Z,95940.06
2023-01-19T04:16:31.143Z,95938.72
2023-01-19T04:18:57.877Z,95940.00
2023-01-19T04:21:24.625Z,95940.56
2023-01-19T04:23:53.216Z,95940.03
2023-01-19T04:26:19.996Z,95942.88
2023-01-19T04:28:46.669Z,95940.31
2023-01-19T04:31:14.619Z,95935.19
2023-01-19T04:33:41.432Z,95938.53
2023-01-19T04:36:08.793Z,95933.38
2023-01-19T04:38:36.090Z,95927.75
2023-01-19T04:41:02.903Z,95929.03
2023-01-19T04:43:29.530Z,95933.34
2023-01-19T04:45:56.243Z,95926.44
2023-01-19T04:48:23.087Z,95923.41
2023-01-19T04:50:52.483Z,95934.66
2023-01-19T04:53:19.495Z,95931.84
2023-01-19T04:55:46.913Z,95929.97
2023-01-19T04:58:13.612Z,95934.09
2023-01-19T05:00:40.582Z,95929.50
2023-01-19T05:03:07.603Z,95930.28
2023-01-19T05:05:34.633Z,95921.00
2023-01-19T05:08:01.409Z,95939.00
2023-01-19T05:10:28.234Z,95943.34
2023-01-19T05:12:55.300Z,95936.94
2023-01-19T05:15:22.394Z,95941.06
2023-01-19T05:17:49.413Z,95931.66
2023-01-19T05:20:17.567Z,95926.25
2023-01-19T05:22:49.812Z,95931.38
2023-01-19T05:25:17.068Z,95922.97
2023-01-19T05:27:44.786Z,95916.34
2023-01-19T05:30:13.432Z,95919.47
2023-01-19T05:32:40.290Z,95913.88
2023-01-19T05:35:07.549Z,95920.22
2023-01-19T05:37:34.338Z,95923.16
2023-01-19T05:40:01.041Z,95920.25
2023-01-19T05:42:27.800Z,95918.72
2023-01-19T05:44:54.428Z,95925.91
2023-01-19T05:47:21.112Z,95914.13
2023-01-19T05:49:47.961Z,95924.56
2023-01-19T05:52:15.146Z,95928.09
2023-01-19T05:54:41.901Z,95929.78
2023-01-19T05:57:08.561Z,95943.28
2023-01-19T05:59:35.452Z,95937.16
2023-01-19T06:02:02.260Z,95952.19
2023-01-19T06:04:28.946Z,95958.78
2023-01-19T06:06:55.742Z,95956.78
2023-01-19T06:09:22.392Z,95967.53
2023-01-19T06:11:49.252Z,95964.66
2023-01-19T06:14:15.980Z,95960.81
2023-01-19T06:16:42.727Z,95963.81
2023-01-19T06:19:09.575Z,95973.00
2023-01-19T06:21:36.292Z,95982.97
2023-01-19T06:24:03.606Z,95978.09
2023-01-19T06:26:30.262Z,95966.38
2023-01-19T06:28:57.001Z,95982.69
2023-01-19T06:31:23.796Z,95995.16
2023-01-19T06:33:50.449Z,95989.03
2023-01-19T06:36:17.312Z,95991.34
2023-01-19T06:38:44.469Z,95992.31
2023-01-19T06:41:11.092Z,96003.81
2023-01-19T06:43:37.859Z,96002.28
2023-01-19T06:46:04.915Z,95999.78
2023-01-19T06:48:31.714Z,96002.31
2023-01-19T06:50:59.677Z,95994.97
2023-01-19T06:53:28.135Z,96001.09
2023-01-19T06:56:02.173Z,96004.41
2023-01-19T06:58:31.783Z,96014.59
2023-01-19T07:01:04.372Z,96023.56
2023-01-19T07:03:31.860Z,96022.81
2023-01-19T07:06:00.932Z,96036.38
2023-01-19T07:08:28.832Z,96046.56
2023-01-19T07:11:25.619Z,96050.69
2023-01-19T07:13:54.864Z,96067.56
2023-01-19T07:16:21.595Z,96060.94
2023-01-19T07:18:48.430Z,96077.84
2023-01-19T07:21:15.576Z,96076.00
2023-01-19T07:23:43.527Z,96086.47
2023-01-19T07:26:10.719Z,96104.78
2023-01-19T07:28:37.439Z,96119.06
2023-01-19T07:31:04.352Z,96143.66
2023-01-19T07:33:31.189Z,96239.78
2023-01-19T07:35:58.424Z,96303.66
2023-01-19T07:38:25.542Z,96309.22
2023-01-19T07:40:52.253Z,96296.06
2023-01-19T07:43:18.957Z,96282.34
2023-01-19T07:45:45.797Z,96282.28
2023-01-19T07:48:12.630Z,96269.81
2023-01-19T07:50:39.207Z,96267.44
2023-01-19T07:53:07.447Z,96322.28
2023-01-19T07:55:34.271Z,96330.44
2023-01-19T07:58:01.446Z,96324.69
2023-01-19T08:00:28.263Z,96321.13
2023-01-19T08:03:00.764Z,96340.03
2023-01-19T08:05:29.275Z,96340.00
2023-01-19T08:07:57.770Z,96346.91
2023-01-19T08:10:26.792Z,96323.69
2023-01-19T08:12:57.880Z,96311.44
2023-01-19T08:15:25.101Z,96272.63
2023-01-19T08:18:00.285Z,96232.75
2023-01-19T08:20:28.577Z,96184.44
2023-01-19T08:23:03.110Z,96138.47
2023-01-19T08:25:38.759Z,96098.41
2023-01-19T08:28:07.019Z,96062.69
2023-01-19T08:30:34.105Z,96033.03
2023-01-19T08:33:04.508Z,96003.44
2023-01-19T08:35:32.159Z,95997.81
2023-01-19T08:38:01.588Z,95985.72
2023-01-19T08:40:29.837Z,95977.06
2023-01-19T08:43:07.180Z,95977.31
2023-01-19T08:45:42.011Z,95972.22
2023-01-19T08:48:10.039Z,95967.59
2023-01-19T08:50:36.738Z,95980.88
2023-01-19T08:53:06.972Z,95970.13
2023-01-19T08:55:35.820Z,95961.59
2023-01-19T08:58:05.978Z,95971.81
2023-01-19T09:00:34.384Z,95972.25
2023-01-19T09:03:03.682Z,95976.75
2023-01-19T09:05:35.688Z,95982.38
2023-01-19T09:08:05.478Z,95999.13
2023-01-19T09:10:36.080Z,96006.41
2023-01-19T09:13:08.566Z,96015.13
2023-01-19T09:15:37.852Z,96020.47
2023-01-19T09:18:07.472Z,96032.09
2023-01-19T09:20:36.306Z,96051.69
2023-01-19T09:23:04.040Z,96051.75
2023-01-19T09:25:31.625Z,96069.44
2023-01-19T09:28:02.794Z,96064.31
2023-01-19T09:30:29.621Z,96067.16
2023-01-19T09:32:58.629Z,96070.19
2023-01-19T09:35:26.299Z,96071.03
2023-01-19T09:37:53.094Z,96073.63
2023-01-19T09:40:20.945Z,96072.75
2023-01-19T09:42:53.513Z,96071.03
2023-01-19T09:45:31.509Z,96068.13
2023-01-19T09:48:00.156Z,96071.41
2023-01-19T09:50:36.876Z,96078.53
2023-01-19T09:53:13.944Z,96077.28
2023-01-19T09:55:42.157Z,96062.47
2023-01-19T09:58:18.494Z,96058.19
2023-01-19T10:00:56.575Z,96050.28
2023-01-19T10:03:24.174Z,96044.91
2023-01-19T10:06:01.446Z,96036.03
2023-01-19T10:08:45.721Z,96024.69
2023-01-19T10:11:57.553Z,96017.78
2023-01-19T10:14:34.472Z,96013.28
2023-01-19T10:17:15.015Z,96010.22
2023-01-19T10:19:47.587Z,96006.00
2023-01-19T10:22:26.871Z,96008.63
2023-01-19T10:24:56.558Z,96019.16
2023-01-19T10:27:28.479Z,96009.28
2023-01-19T10:29:56.695Z,96006.78
2023-01-19T10:32:41.280Z,96013.91
2023-01-19T10:35:24.806Z,96015.44
2023-01-19T10:37:56.194Z,96027.09
2023-01-19T10:40:32.240Z,96026.84
2023-01-19T10:42:59.541Z,96021.19
2023-01-19T10:45:31.119Z,96030.59
2023-01-19T10:48:01.114Z,96032.25
2023-01-19T10:50:33.340Z,96035.63
2023-01-19T10:53:05.983Z,96042.41
2023-01-19T10:55:38.297Z,96050.34
2023-01-19T10:58:07.365Z,96056.78
2023-01-19T11:00:38.564Z,96055.94
2023-01-19T11:03:31.368Z,96062.66
2023-01-19T11:06:19.486Z,96058.94
2023-01-19T11:08:48.561Z,96061.28
2023-01-19T11:11:15.232Z,96060.81
2023-01-19T11:13:43.054Z,96069.56
2023-01-19T11:16:25.139Z,96073.66
2023-01-19T11:18:53.593Z,96094.38
2023-01-19T11:21:25.955Z,96083.91
2023-01-19T11:24:14.934Z,96083.38
2023-01-19T11:26:50.400Z,96085.97
2023-01-19T11:29:20.930Z,96100.69
2023-01-19T11:31:47.988Z,96102.75
2023-01-19T11:34:36.884Z,96100.47
2023-01-19T11:37:27.444Z,96097.13
2023-01-19T11:39:58.100Z,96089.19
2023-01-19T11:42:26.807Z,96100.78
2023-01-19T11:44:59.704Z,96100.03
2023-01-19T11:47:41.256Z,96108.88
2023-01-19T11:50:29.662Z,96102.22
2023-01-19T11:53:20.481Z,96094.38
2023-01-19T11:56:04.858Z,96084.41
2023-01-19T11:58:36.731Z,96069.59
2023-01-19T12:01:12.711Z,96079.94
2023-01-19T12:04:14.356Z,96067.34
2023-01-19T12:06:47.891Z,96063.06
2023-01-19T12:09:25.174Z,96059.91
2023-01-19T12:12:04.299Z,96064.72
2023-01-19T12:14:43.726Z,96054.66
2023-01-19T12:17:19.569Z,96060.47
2023-01-19T12:19:55.251Z,96074.38
2023-01-19T12:22:23.979Z,96074.31
2023-01-19T12:25:00.558Z,96073.44
2023-01-19T12:27:39.919Z,96079.53
2023-01-19T12:30:16.220Z,96079.59
2023-01-19T12:32:43.458Z,96091.47
2023-01-19T12:35:47.585Z,96107.38
2023-01-19T12:38:36.368Z,96127.56
2023-01-19T12:41:17.283Z,96140.50
2023-01-19T12:43:44.090Z,96151.59
2023-01-19T12:46:27.872Z,96166.97
2023-01-19T12:48:55.348Z,96163.03
2023-01-19T12:51:24.234Z,96187.47
2023-01-19T12:53:56.798Z,96190.53
2023-01-19T12:56:30.908Z,96183.34
2023-01-19T12:58:57.882Z,96179.38
2023-01-19T13:01:27.003Z,96172.38
2023-01-19T13:04:03.924Z,96167.66
2023-01-19T13:06:49.096Z,96164.25
2023-01-19T13:09:38.554Z,96169.50
2023-01-19T13:12:14.201Z,96172.22
2023-01-19T13:14:42.686Z,96159.25
2023-01-19T13:17:28.515Z,96166.34
2023-01-19T13:20:01.629Z,96171.09
2023-01-19T13:22:46.650Z,96174.78
2023-01-19T13:25:40.233Z,96167.88
2023-01-19T13:28:10.099Z,96180.78
2023-01-19T13:30:39.876Z,96197.28
2023-01-19T13:33:19.206Z,96208.66
2023-01-19T13:35:58.799Z,96208.78
2023-01-19T13:38:27.917Z,96221.13
2023-01-19T13:40:56.413Z,96240.59
2023-01-19T13:43:29.265Z,96239.50
2023-01-19T13:45:56.416Z,96248.72
2023-01-19T13:48:24.877Z,96257.94
2023-01-19T13:51:00.527Z,96269.72
2023-01-19T13:53:27.550Z,96285.50
2023-01-19T13:56:20.677Z,96296.22
2023-01-19T13:59:02.435Z,96309.94
2023-01-19T14:01:30.402Z,96331.47
2023-01-19T14:03:57.312Z,96319.84
2023-01-19T14:06:36.548Z,96348.44
2023-01-19T14:09:29.339Z,96355.41
2023-01-19T14:12:17.667Z,96359.28
2023-01-19T14:14:49.592Z,96366.00
2023-01-19T14:17:36.671Z,96361.09
2023-01-19T14:20:05.549Z,96365.50
2023-01-19T14:22:46.896Z,96363.69
2023-01-19T14:25:33.309Z,96360.88
2023-01-19T14:28:43.616Z,96371.22
2023-01-19T14:31:25.120Z,96373.50
2023-01-19T14:33:54.352Z,96357.09
2023-01-19T14:36:28.791Z,96366.06
2023-01-19T14:38:59.315Z,96365.72
2023-01-19T14:41:43.936Z,96367.91
2023-01-19T14:44:15.525Z,96357.06
2023-01-19T14:46:48.059Z,96366.56
2023-01-19T14:49:20.501Z,96371.34
2023-01-19T14:51:49.141Z,96383.19
2023-01-19T14:54:19.176Z,96367.66
2023-01-19T14:56:45.889Z,96380.91
2023-01-19T14:59:12.666Z,96392.97
2023-01-19T15:01:39.575Z,96397.75
2023-01-19T15:04:06.394Z,96421.94
2023-01-19T15:06:41.592Z,96429.84
2023-01-19T15:09:12.014Z,96428.31
2023-01-19T15:11:39.380Z,96422.97
2023-01-19T15:14:06.276Z,96424.66
2023-01-19T15:16:34.420Z,96433.63
2023-01-19T15:19:01.134Z,96429.97
2023-01-19T15:21:27.851Z,96438.00
2023-01-19T15:23:55.057Z,96464.75
2023-01-19T15:26:24.125Z,96466.47
2023-01-19T15:28:51.375Z,96500.09
2023-01-19T15:31:23.373Z,96489.63
2023-01-19T15:33:50.551Z,96467.31
2023-01-19T15:36:20.088Z,96476.56
2023-01-19T15:38:47.797Z,96463.25
2023-01-19T15:41:23.832Z,96463.44
2023-01-19T15:43:51.041Z,96460.63
2023-01-19T15:46:20.684Z,96465.53
2023-01-19T15:48:48.028Z,96463.28
2023-01-19T15:51:16.731Z,96466.09
2023-01-19T15:53:43.892Z,96460.69
2023-01-19T15:56:31.344Z,96449.78
2023-01-19T15:58:58.904Z,96448.22
2023-01-19T16:01:32.435Z,96456.56
2023-01-19T16:04:00.720Z,96455.28
2023-01-19T16:06:28.383Z,96427.84
2023-01-19T16:08:59.787Z,96430.72
2023-01-19T16:11:31.378Z,96454.03
2023-01-19T16:13:58.764Z,96453.88
2023-01-19T16:16:28.108Z,96438.78
2023-01-19T16:18:55.519Z,96430.09
2023-01-19T16:21:22.585Z,96438.06
2023-01-19T16:23:49.586Z,96440.13
2023-01-19T16:26:42.597Z,96438.81
2023-01-19T16:29:10.937Z,96464.66
2023-01-19T16:31:42.739Z,96486.44
2023-01-19T16:34:09.970Z,96487.47
2023-01-19T16:36:38.389Z,96496.19
2023-01-19T16:39:07.527Z,96481.53
2023-01-19T16:41:34.795Z,96477.03
2023-01-19T16:44:02.103Z,96477.06
2023-01-19T16:46:37.437Z,96468.09
2023-01-19T16:49:06.965Z,96460.69
2023-01-19T16:51:33.799Z,96449.25
2023-01-19T16:54:00.453Z,96434.44
2023-01-19T16:56:27.622Z,96428.28
2023-01-19T16:58:55.243Z,96438.25
2023-01-19T17:01:22.774Z,96438.78
2023-01-19T17:03:49.624Z,96436.81
2023-01-19T17:06:18.750Z,96423.31
2023-01-19T17:08:45.567Z,96419.72
2023-01-19T17:11:19.560Z,96422.56
2023-01-19T17:13:50.248Z,96420.56
2023-01-19T17:16:17.079Z,96414.97
2023-01-19T17:18:43.732Z,96395.09
2023-01-19T17:21:10.750Z,96378.44
2023-01-19T17:23:42.854Z,96385.28
2023-01-19T17:26:10.443Z,96383.47
2023-01-19T17:28:37.794Z,96390.94
2023-01-19T17:31:11.103Z,96392.75
2023-01-19T17:33:38.532Z,96388.19
2023-01-19T17:36:08.253Z,96386.97
2023-01-19T17:38:35.997Z,96377.50
2023-01-19T17:41:02.867Z,96363.47
2023-01-19T17:43:29.786Z,96344.59
2023-01-19T17:45:56.615Z,96341.53
2023-01-19T17:48:23.446Z,96339.22
2023-01-19T17:50:50.229Z,96335.13
2023-01-19T17:53:17.156Z,96332.09
2023-01-19T17:55:43.862Z,96330.81
2023-01-19T17:58:10.542Z,96326.44
2023-01-19T18:00:37.261Z,96321.81
2023-01-19T18:03:04.075Z,96324.19
2023-01-19T18:05:30.881Z,96315.56
2023-01-19T18:07:57.618Z,96306.38
2023-01-19T18:10:24.236Z,96306.44
2023-01-19T18:12:50.892Z,96294.91
2023-01-19T18:15:17.667Z,96307.94
2023-01-19T18:17:44.368Z,96304.09
2023-01-19T18:20:12.034Z,96310.19
2023-01-19T18:22:38.903Z,96309.97
2023-01-19T18:25:06.935Z,96316.84
2023-01-19T18:27:33.711Z,96321.47
2023-01-19T18:30:00.561Z,96327.31
2023-01-19T18:32:27.380Z,96330.13
2023-01-19T18:34:54.311Z,96335.53
2023-01-19T18:37:21.071Z,96337.56
2023-01-19T18:39:47.885Z,96349.06
2023-01-19T18:42:14.576Z,96343.25
2023-01-19T18:44:41.404Z,96343.78
2023-01-19T18:47:08.203Z,96349.66
2023-01-19T18:49:34.821Z,96343.78
2023-01-19T18:52:01.508Z,96343.78
2023-01-19T18:54:28.258Z,96344.53
2023-01-19T18:56:54.884Z,96352.94
2023-01-19T18:59:21.546Z,96358.88
2023-01-19T19:01:48.362Z,96361.91
2023-01-19T19:04:15.285Z,96361.91
2023-01-19T19:06:41.919Z,96364.25
2023-01-19T19:09:09.327Z,96357.31
2023-01-19T19:11:36.668Z,96364.50
2023-01-19T19:14:03.456Z,96346.59
2023-01-19T19:16:34.092Z,96352.72
2023-01-19T19:19:02.110Z,96353.75
2023-01-19T19:21:28.830Z,96352.72
2023-01-19T19:23:57.572Z,96363.97
2023-01-19T19:26:25.488Z,96362.44
2023-01-19T19:28:52.577Z,96370.34
2023-01-19T19:31:21.098Z,96377.00
2023-01-19T19:33:48.993Z,96369.34
2023-01-19T19:36:15.732Z,96371.16
2023-01-19T19:38:44.472Z,96372.94
2023-01-19T19:41:19.888Z,96366.78
2023-01-19T19:43:46.661Z,96374.19
2023-01-19T19:46:15.741Z,96369.84
2023-01-19T19:48:42.498Z,96363.94
2023-01-19T19:51:18.451Z,96364.47
2023-01-19T19:53:45.874Z,96350.72
2023-01-19T19:56:13.450Z,96351.47
2023-01-19T19:58:42.084Z,96357.31
2023-01-19T20:01:20.403Z,96344.84
2023-01-19T20:03:47.531Z,96348.63
2023-01-19T20:06:22.733Z,96352.22
2023-01-19T20:08:50.459Z,96343.53
2023-01-19T20:11:20.452Z,96340.97
2023-01-19T20:13:47.873Z,96334.34
2023-01-19T20:16:20.653Z,96329.25
2023-01-19T20:18:51.339Z,96335.13
2023-01-19T20:21:21.620Z,96338.72
2023-01-19T20:23:49.677Z,96349.19
2023-01-19T20:26:18.883Z,96352.22
2023-01-19T20:28:46.120Z,96359.63
2023-01-19T20:31:17.013Z,96365.75
2023-01-19T20:33:44.110Z,96363.16
2023-01-19T20:36:11.704Z,96364.19
2023-01-19T20:38:39.940Z,96370.81
2023-01-19T20:41:08.146Z,96368.00
2023-01-19T20:43:35.590Z,96377.66
2023-01-19T20:46:03.027Z,96378.69
2023-01-19T20:48:30.239Z,96387.81
2023-01-19T20:51:00.471Z,96388.56
2023-01-19T20:53:27.997Z,96394.13
2023-01-19T20:55:54.919Z,96383.47
2023-01-19T20:58:21.830Z,96370.97
2023-01-19T21:00:48.821Z,96361.25
2023-01-19T21:03:15.613Z,96348.00
2023-01-19T21:05:42.325Z,96348.75
2023-01-19T21:08:10.159Z,96346.94
2023-01-19T21:10:36.985Z,96336.50
2023-01-19T21:13:03.731Z,96336.50
2023-01-19T21:15:30.430Z,96341.81
2023-01-19T21:17:57.495Z,96335.00
2023-01-19T21:20:24.337Z,96322.25
2023-01-19T21:22:52.045Z,96323.00
2023-01-19T21:25:18.689Z,96335.44
2023-01-19T21:27:45.378Z,96336.44
2023-01-19T21:30:12.158Z,96333.44
2023-01-19T21:32:38.992Z,96330.84
2023-01-19T21:35:06.240Z,96339.22
2023-01-19T21:37:32.934Z,96327.81
2023-01-19T21:39:59.616Z,96331.09
2023-01-19T21:42:26.240Z,96328.31
2023-01-19T21:44:52.933Z,96321.41
2023-01-19T21:47:19.650Z,96324.22
2023-01-19T21:49:46.325Z,96326.69
2023-01-19T21:52:13.133Z,96316.59
2023-01-19T21:54:39.853Z,96319.06
2023-01-19T21:57:06.629Z,96333.84
2023-01-19T21:59:33.432Z,96329.47
2023-01-19T22:02:00.449Z,96337.91
2023-01-19T22:04:27.568Z,96334.91
2023-01-19T22:06:54.296Z,96337.22
2023-01-19T22:09:20.878Z,96336.47
2023-01-19T22:11:47.535Z,96339.00
2023-01-19T22:14:14.137Z,96346.91
2023-01-19T22:16:40.785Z,96349.19
2023-01-19T22:19:08.319Z,96350.91
2023-01-19T22:21:35.961Z,96348.94
2023-01-19T22:24:04.149Z,96354.22
2023-01-19T22:26:34.227Z,96355.22
2023-01-19T22:29:02.116Z,96359.31
2023-01-19T22:31:29.592Z,96364.84
2023-01-19T22:33:57.171Z,96358.97
2023-01-19T22:36:34.125Z,96362.03
2023-01-19T22:39:06.567Z,96368.66
2023-01-19T22:41:34.851Z,96374.75
2023-01-19T22:44:07.208Z,96377.84
2023-01-19T22:46:35.771Z,96373.72
2023-01-19T22:49:02.802Z,96377.81
2023-01-19T22:51:30.730Z,96374.28
2023-01-19T22:53:57.811Z,96365.13
2023-01-19T22:56:26.882Z,96364.63
2023-01-19T22:58:54.246Z,96363.38
2023-01-19T23:01:26.274Z,96358.88
2023-01-19T23:03:54.276Z,96364.75
2023-01-19T23:06:23.203Z,96355.84
2023-01-19T23:08:50.634Z,96369.38
2023-01-19T23:11:19.979Z,96365.31
2023-01-19T23:13:47.351Z,96366.31
2023-01-19T23:16:14.635Z,96370.34
2023-01-19T23:18:42.051Z,96372.88
2023-01-19T23:21:14.473Z,96379.06
2023-01-19T23:23:41.312Z,96386.69
2023-01-19T23:26:10.935Z,96376.22
2023-01-19T23:28:39.206Z,96390.47
2023-01-19T23:31:24.752Z,96391.53
2023-01-19T23:33:56.261Z,96377.59
2023-01-19T23:36:24.583Z,96387.75
2023-01-19T23:38:56.315Z,96391.03
2023-01-19T23:41:24.396Z,96382.88
2023-01-19T23:43:51.553Z,96384.84
2023-01-19T23:46:19.369Z,96384.38
2023-01-19T23:48:46.787Z,96379.75
2023-01-19T23:51:20.314Z,96388.66
2023-01-19T23:53:47.395Z,96389.09
2023-01-19T23:56:20.092Z,96388.03
2023-01-19T23:58:55.086Z,96403.31
